Terminal Aerodrome Forecast
Issued by NWS

Home | Current Version | Previous Version | Graphics & Text | Print | Product List | Glossary On
Versions: 1 2 3 4 5 6 7 8 9 10 11 12 13 14 15 16 17 18 19 20 21 22 23 24 25 26 27 28
248
FTUS43 KABR 261451 AAB
TAFATY
TAF AMD
KATY 261451Z 2615/2712 07010KT 3SM -DZ OVC008
     FM261900 07013KT P6SM OVC015
     FM270000 07017KT P6SM VCSH OVC020
     FM270500 08017G25KT P6SM -SHRA OVC015=

USA.gov is the U.S. government's official web portal to all federal, state and local government web resources and services.